• Join FlightAware (Why Join?)
  • Login
  • US Flag 
05:42PM EDT


 

Airport Tracker/Info


-or-


 

Live Flight TrackerFlight Track Log ✈ SLI2311 ✈ 31-Dec-2013 ✈ MMCL / CUL - MMLP / LAP

Flight Track Log - Related Links

Times and Time Zones

All times are in EST time to prevent confusion due to time zone crossing. See the SLI2311 flight status page for this flight to view local times or setup timezone preferences in your user account.

Time Position Orientation Groundspeed Altitude Reporting Facility
EST Latitude Longitude Course Direction KTS MPH feet Rate Location/Type
07:28PM 24.4340 -108.8869 256° West  Level Estimated
07:29PM 24.4171 -108.9573 255° West  Level Estimated
07:30PM 24.4002 -109.0277 255° West  Level Estimated
07:31PM 24.3833 -109.0981 255° West  Level Estimated
07:32PM 24.3663 -109.1684 255° West  Level Estimated
07:33PM 24.3493 -109.2388 255° West  Level Estimated
07:34PM 24.3323 -109.3091 255° West  Level Estimated
07:35PM 24.3152 -109.3794 255° West  Level Estimated
07:36PM 24.2981 -109.4497 255° West  Level Estimated
07:37PM 24.2810 -109.5200 255° West  Level Estimated
07:38PM 24.2638 -109.5902 255° West  Level Estimated
07:39PM 24.2466 -109.6604 255° West  Level Estimated
07:40PM 24.2294 -109.7306 255° West  Level Estimated
07:41PM 24.2122 -109.8008 255° West  Level Estimated
07:42PM 24.1949 -109.8710 255° West  Level Estimated
07:43PM 24.1775 -109.9411 255° West  Level Estimated
07:44PM 24.1602 -110.0113 255° West  Level Estimated
07:45PM 24.1428 -110.0814 255° West  Level Estimated
07:46PM 24.1254 -110.1515 255° West  Level Estimated
07:47PM 24.1079 -110.2215 255° West  Level Estimated
07:48PM 24.0904 -110.2916 255° West  Level Estimated
07:49PM 24.0729 -110.3616 255° West  Level Estimated
07:50PM 24.0727 -110.3625 255° West  Level Estimated
07:51PM 24.0727 -110.3625 49° Northeast  Level Estimated
07:52PM 24.0727 -110.3625 49° Northeast  Level Estimated
07:53PM 24.0727 -110.3625 49° Northeast  Level Estimated
07:54PM 24.0727 -110.3625 49° Northeast  Level Estimated
07:55PM 24.0727 -110.3625 49° Northeast  Level Estimated
07:56PM 24.0727 -110.3625 49° Northeast  Level Estimated
07:57PM 24.0727 -110.3625 49° Northeast  Level Estimated
07:58PM 24.0727 -110.3625 49° Northeast  Level Estimated
07:59PM 24.0727 -110.3625 49° Northeast  Level Estimated
08:00PM 24.0727 -110.3625 49° Northeast  Level Estimated
08:01PM 24.0727 -110.3625 49° Northeast  Level Estimated
08:02PM 24.0727 -110.3625 49° Northeast  Level Estimated
08:03PM 24.0727 -110.3625 49° Northeast  Level Estimated
08:04PM 24.0727 -110.3625 49° Northeast  Level Estimated
08:05PM 24.0727 -110.3625 49° Northeast  Level Estimated